createdAt,value
2023-04-01T00:01:06.828Z,96018.94
2023-04-01T00:05:11.436Z,96025.94
2023-04-01T00:09:15.576Z,96022.66
2023-04-01T00:13:18.470Z,96023.25
2023-04-01T00:17:21.131Z,96021.00
2023-04-01T00:21:24.377Z,96019.84
2023-04-01T00:25:28.383Z,96011.44
2023-04-01T00:29:31.705Z,96016.81
2023-04-01T00:33:34.650Z,96013.88
2023-04-01T00:37:38.655Z,96030.16
2023-04-01T00:41:42.797Z,96012.13
2023-04-01T00:45:47.513Z,96009.91
2023-04-01T00:49:53.196Z,96004.75
2023-04-01T00:53:58.903Z,96008.84
2023-04-01T00:58:06.106Z,96004.75
2023-04-01T01:02:12.949Z,96010.13
2023-04-01T01:06:40.005Z,96009.06
2023-04-01T01:10:48.282Z,96006.63
2023-04-01T01:14:57.526Z,96001.94
2023-04-01T01:19:11.530Z,96008.38
2023-04-01T01:23:58.573Z,96012.03
2023-04-01T01:28:16.685Z,96007.91
2023-04-01T01:32:42.186Z,96002.19
2023-04-01T01:36:49.743Z,96008.41
2023-04-01T01:40:55.358Z,95996.47
2023-04-01T01:45:01.650Z,95994.81
2023-04-01T01:49:07.530Z,96003.09
2023-04-01T01:53:13.496Z,96003.94
2023-04-01T01:57:20.050Z,96004.75
2023-04-01T02:01:26.725Z,95992.34
2023-04-01T02:05:32.654Z,95987.22
2023-04-01T02:09:37.649Z,95998.56
2023-04-01T02:13:45.141Z,96007.91
2023-04-01T02:17:49.857Z,96000.31
2023-04-01T02:21:57.446Z,95999.72
2023-04-01T02:26:01.907Z,96006.94
2023-04-01T02:30:05.601Z,96010.59
2023-04-01T02:34:08.635Z,96000.31
2023-04-01T02:38:11.367Z,96003.44
2023-04-01T02:42:15.555Z,96006.59
2023-04-01T02:46:18.862Z,96026.47
2023-04-01T02:50:21.547Z,96016.63
2023-04-01T02:54:24.162Z,96027.16
2023-04-01T02:58:28.180Z,96033.78
2023-04-01T03:02:30.927Z,96030.75
2023-04-01T03:06:33.875Z,96032.03
2023-04-01T03:10:36.530Z,96028.97
2023-04-01T03:14:40.513Z,96036.91
2023-04-01T03:18:43.333Z,96039.81
2023-04-01T03:22:46.842Z,96038.63
2023-04-01T03:26:49.474Z,96041.16
2023-04-01T03:30:53.502Z,96056.78
2023-04-01T03:34:56.162Z,96044.63
2023-04-01T03:38:58.839Z,96041.19
2023-04-01T03:43:01.706Z,96040.59
2023-04-01T03:47:05.803Z,96055.66
2023-04-01T03:51:09.216Z,96049.94
2023-04-01T03:55:12.001Z,96059.84
2023-04-01T03:59:14.896Z,96058.44
2023-04-01T04:03:18.970Z,96057.25
2023-04-01T04:07:21.669Z,96064.03
2023-04-01T04:11:24.814Z,96061.81
2023-04-01T04:15:27.475Z,96052.78
2023-04-01T04:19:35.825Z,96068.69
2023-04-01T04:23:38.516Z,96065.53
2023-04-01T04:27:41.345Z,96069.88
2023-04-01T04:31:44.686Z,96068.00
2023-04-01T04:35:48.784Z,96072.09
2023-04-01T04:39:51.427Z,96080.00
2023-04-01T04:43:55.946Z,96077.47
2023-04-01T04:47:58.638Z,96079.34
2023-04-01T04:52:02.710Z,96076.44
2023-04-01T04:56:05.510Z,96070.59
2023-04-01T05:00:10.994Z,96088.50
2023-04-01T05:04:13.596Z,96077.53
2023-04-01T05:08:17.597Z,96082.47
2023-04-01T05:12:20.429Z,96080.00
2023-04-01T05:16:23.141Z,96092.41
2023-04-01T05:20:25.774Z,96092.63
2023-04-01T05:24:29.835Z,96097.09
2023-04-01T05:28:32.527Z,96099.78
2023-04-01T05:32:35.231Z,96097.47
2023-04-01T05:36:38.669Z,96093.41
2023-04-01T05:40:42.672Z,96092.53
2023-04-01T05:44:45.403Z,96093.72
2023-04-01T05:48:48.159Z,96113.03
2023-04-01T05:52:50.766Z,96105.34
2023-04-01T05:56:54.930Z,96119.97
2023-04-01T06:01:09.653Z,96114.97
2023-04-01T06:05:19.652Z,96119.66
2023-04-01T06:09:28.314Z,96114.88
2023-04-01T06:13:47.274Z,96120.63
2023-04-01T06:18:07.128Z,96128.47
2023-04-01T06:22:42.033Z,96097.59
2023-04-01T06:26:52.074Z,96111.19
2023-04-01T06:31:06.505Z,96107.22
2023-04-01T06:35:33.963Z,96117.53
2023-04-01T06:40:02.124Z,96115.34
2023-04-01T06:44:17.084Z,96125.66
2023-04-01T06:48:39.492Z,96123.69
2023-04-01T06:52:49.456Z,96128.28
2023-04-01T06:57:00.226Z,96114.47
2023-04-01T07:01:05.929Z,96127.38
2023-04-01T07:05:13.105Z,96113.50
2023-04-01T07:09:20.526Z,96118.53
2023-04-01T07:13:28.304Z,96112.69
2023-04-01T07:17:34.736Z,96115.63
2023-04-01T07:21:44.901Z,96115.72
2023-04-01T07:25:51.969Z,96125.91
2023-04-01T07:29:58.452Z,96107.19
2023-04-01T07:34:10.943Z,96111.28
2023-04-01T07:38:28.091Z,96134.69
2023-04-01T07:42:42.876Z,96118.88
2023-04-01T07:46:57.839Z,96123.81
2023-04-01T07:51:04.677Z,96115.44
2023-04-01T07:55:15.175Z,96116.63
2023-04-01T07:59:25.296Z,96126.22
2023-04-01T08:03:38.100Z,96129.59
2023-04-01T08:07:50.133Z,96113.84
2023-04-01T08:12:05.019Z,96135.34
2023-04-01T08:16:15.681Z,96115.72
2023-04-01T08:20:30.866Z,96114.69
2023-04-01T08:24:47.169Z,96121.31
2023-04-01T08:28:57.049Z,96110.44
2023-04-01T08:33:07.181Z,96123.38
2023-04-01T08:37:14.399Z,96105.06
2023-04-01T08:41:50.651Z,96112.00
2023-04-01T08:46:09.444Z,96082.00
2023-04-01T08:50:40.019Z,96079.34
2023-04-01T08:54:58.952Z,96090.91
2023-04-01T08:59:24.072Z,96100.25
2023-04-01T09:03:53.985Z,96096.94
2023-04-01T09:08:07.513Z,96097.50
2023-04-01T09:12:26.021Z,96108.66
2023-04-01T09:16:59.069Z,96095.72
2023-04-01T09:21:29.940Z,96090.81
2023-04-01T09:25:48.435Z,96099.75
2023-04-01T09:30:10.437Z,96116.34
2023-04-01T09:34:33.442Z,96091.41
2023-04-01T09:38:54.090Z,96102.59
2023-04-01T09:43:19.406Z,96111.03
2023-04-01T09:47:36.335Z,96101.63
2023-04-01T09:51:45.220Z,96090.72
2023-04-01T09:56:36.820Z,96094.06
2023-04-01T10:01:30.226Z,96097.38
2023-04-01T10:06:05.891Z,96102.69
2023-04-01T10:10:49.087Z,96104.22
2023-04-01T10:15:32.720Z,96093.44
2023-04-01T10:20:04.265Z,96086.22
2023-04-01T10:24:45.916Z,96084.53
2023-04-01T10:29:21.085Z,96084.19
2023-04-01T10:34:10.362Z,96080.25
2023-04-01T10:38:43.370Z,96103.69
2023-04-01T10:43:41.324Z,96081.28
2023-04-01T10:48:25.075Z,96071.63
2023-04-01T10:53:06.120Z,96070.81
2023-04-01T10:57:28.557Z,96073.81
2023-04-01T11:02:12.274Z,96071.22
2023-04-01T11:07:02.270Z,96073.81
2023-04-01T11:11:49.107Z,96065.56
2023-04-01T11:16:36.819Z,96064.63
2023-04-01T11:21:07.036Z,96066.00
2023-04-01T11:25:42.021Z,96059.28
2023-04-01T11:30:00.923Z,96072.66
2023-04-01T11:34:13.946Z,96060.78
2023-04-01T11:38:42.338Z,96105.72
2023-04-01T11:42:51.974Z,96102.97
2023-04-01T11:47:15.356Z,96108.25
2023-04-01T11:51:55.952Z,96103.56
2023-04-01T11:56:17.952Z,96107.63
2023-04-01T12:00:55.950Z,96109.41
2023-04-01T12:05:38.946Z,96118.44
2023-04-01T12:09:52.133Z,96116.91
2023-04-01T12:14:01.847Z,96113.97
2023-04-01T12:18:14.890Z,96113.50
2023-04-01T12:22:42.457Z,96116.91
2023-04-01T12:26:57.466Z,96113.16
2023-04-01T12:31:15.006Z,96119.25
2023-04-01T12:35:23.900Z,96125.22
2023-04-01T12:39:51.335Z,96113.72
2023-04-01T12:44:18.763Z,96114.78
2023-04-01T12:48:54.967Z,96111.16
2023-04-01T12:53:12.464Z,96122.97
2023-04-01T12:57:31.447Z,96108.56
2023-04-01T13:02:07.325Z,96119.94
2023-04-01T13:06:42.179Z,96111.63
2023-04-01T13:11:02.552Z,96120.06
2023-04-01T13:15:25.035Z,96106.72
2023-04-01T13:19:33.135Z,96138.13
2023-04-01T13:23:49.106Z,96124.63
2023-04-01T13:27:58.544Z,96127.91
2023-04-01T13:32:15.828Z,96119.59
2023-04-01T13:36:29.203Z,96124.75
2023-04-01T13:40:49.353Z,96135.41
2023-04-01T13:45:04.557Z,96141.63
2023-04-01T13:49:35.875Z,96120.19
2023-04-01T13:54:00.168Z,96131.31
2023-04-01T13:58:28.172Z,96122.31
2023-04-01T14:02:49.050Z,96131.06
2023-04-01T14:07:02.813Z,96136.22
2023-04-01T14:11:18.891Z,96137.63
2023-04-01T14:15:43.948Z,96133.31
2023-04-01T14:20:04.645Z,96137.03
2023-04-01T14:24:27.179Z,96141.97
2023-04-01T14:28:39.095Z,96146.06
2023-04-01T14:32:51.416Z,96135.28
2023-04-01T14:37:22.719Z,96144.91
2023-04-01T14:41:38.852Z,96148.66
2023-04-01T14:46:08.642Z,96143.72
2023-04-01T14:50:17.275Z,96134.47
2023-04-01T14:54:24.478Z,96141.75
2023-04-01T14:58:40.952Z,96136.59
2023-04-01T15:02:53.761Z,96141.25
2023-04-01T15:07:17.531Z,96143.84
2023-04-01T15:11:30.892Z,96150.78
2023-04-01T15:15:41.561Z,96145.47
2023-04-01T15:19:59.100Z,96145.13
2023-04-01T15:24:11.244Z,96139.75
2023-04-01T15:28:27.011Z,96147.81
2023-04-01T15:32:41.531Z,96144.81
2023-04-01T15:36:53.003Z,96153.47
2023-04-01T15:41:04.957Z,96156.19
2023-04-01T15:45:20.239Z,96159.56
2023-04-01T15:49:38.594Z,96159.91
2023-04-01T15:53:57.239Z,96165.88
2023-04-01T15:58:25.241Z,96167.53
2023-04-01T16:02:35.188Z,96169.66
2023-04-01T16:06:50.750Z,96175.88
2023-04-01T16:11:10.840Z,96173.16
2023-04-01T16:15:27.126Z,96177.84
2023-04-01T16:19:39.691Z,96178.63
2023-04-01T16:23:44.607Z,96176.19
2023-04-01T16:27:56.544Z,96171.84
2023-04-01T16:32:22.767Z,96178.81
2023-04-01T16:36:31.144Z,96181.50
2023-04-01T16:40:44.753Z,96184.75
2023-04-01T16:44:56.467Z,96195.97
2023-04-01T16:49:15.657Z,96196.69
2023-04-01T16:53:22.200Z,96196.91
2023-04-01T16:57:30.064Z,96211.69
2023-04-01T17:01:44.570Z,96214.38
2023-04-01T17:06:03.194Z,96211.09
2023-04-01T17:10:30.057Z,96214.84
2023-04-01T17:14:43.846Z,96216.38
2023-04-01T17:18:58.386Z,96216.25
2023-04-01T17:23:10.389Z,96228.41
2023-04-01T17:27:25.729Z,96242.81
2023-04-01T17:31:44.390Z,96236.25
2023-04-01T17:35:56.736Z,96230.28
2023-04-01T17:40:17.780Z,96254.38
2023-04-01T17:44:35.904Z,96253.88
2023-04-01T17:48:51.169Z,96262.41
2023-04-01T17:53:07.941Z,96258.16
2023-04-01T17:57:36.086Z,96259.22
2023-04-01T18:01:49.694Z,96266.47
2023-04-01T18:06:06.130Z,96271.72
2023-04-01T18:10:31.427Z,96275.66
2023-04-01T18:14:51.158Z,96271.56
2023-04-01T18:19:03.831Z,96285.63
2023-04-01T18:23:13.328Z,96286.09
2023-04-01T18:27:20.135Z,96296.41
2023-04-01T18:31:27.582Z,96281.97
2023-04-01T18:35:47.037Z,96302.25
2023-04-01T18:39:52.779Z,96301.88
2023-04-01T18:44:06.050Z,96308.06
2023-04-01T18:48:36.252Z,96313.47
2023-04-01T18:52:42.695Z,96320.03
2023-04-01T18:56:47.270Z,96320.50
2023-04-01T19:00:59.158Z,96323.19
2023-04-01T19:05:08.077Z,96333.28
2023-04-01T19:09:28.782Z,96338.44
2023-04-01T19:13:40.896Z,96344.41
2023-04-01T19:17:56.454Z,96348.38
2023-04-01T19:22:16.008Z,96351.91
2023-04-01T19:26:26.138Z,96351.31
2023-04-01T19:30:43.848Z,96357.50
2023-04-01T19:34:56.766Z,96358.31
2023-04-01T19:39:18.128Z,96358.31
2023-04-01T19:43:40.306Z,96361.81
2023-04-01T19:47:55.580Z,96358.78
2023-04-01T19:52:04.542Z,96367.47
2023-04-01T19:56:17.856Z,96362.13
2023-04-01T20:00:28.005Z,96371.28
2023-04-01T20:04:35.581Z,96378.66
2023-04-01T20:08:44.237Z,96374.34
2023-04-01T20:12:56.409Z,96383.44
2023-04-01T20:17:09.682Z,96397.06
2023-04-01T20:21:29.155Z,96388.63
2023-04-01T20:25:37.233Z,96388.84
2023-04-01T20:29:54.084Z,96390.13
2023-04-01T20:34:25.340Z,96382.84
2023-04-01T20:38:49.348Z,96390.31
2023-04-01T20:43:16.933Z,96398.84
2023-04-01T20:47:32.009Z,96404.47
2023-04-01T20:51:39.726Z,96407.16
2023-04-01T20:56:14.532Z,96410.66
2023-04-01T21:00:35.958Z,96411.25
2023-04-01T21:04:57.088Z,96422.03
2023-04-01T21:09:13.299Z,96413.56
2023-04-01T21:13:30.396Z,96425.53
2023-04-01T21:17:44.444Z,96412.75
2023-04-01T21:22:17.419Z,96423.53
2023-04-01T21:26:31.823Z,96419.56
2023-04-01T21:30:49.381Z,96427.03
2023-04-01T21:34:58.058Z,96427.03
2023-04-01T21:39:17.448Z,96425.63
2023-04-01T21:43:36.556Z,96439.06
2023-04-01T21:48:15.001Z,96441.38
2023-04-01T21:53:02.599Z,96441.16
2023-04-01T21:57:45.036Z,96440.31
2023-04-01T22:02:06.062Z,96448.78
2023-04-01T22:06:19.813Z,96446.97
2023-04-01T22:10:31.270Z,96442.66
2023-04-01T22:14:43.498Z,96449.25
2023-04-01T22:18:53.425Z,96454.84
2023-04-01T22:23:09.897Z,96448.63
2023-04-01T22:27:19.890Z,96449.44
2023-04-01T22:31:29.914Z,96442.66
2023-04-01T22:35:39.048Z,96451.75
2023-04-01T22:40:02.036Z,96448.47
2023-04-01T22:44:04.979Z,96454.66
2023-04-01T22:48:14.566Z,96450.56
2023-04-01T22:52:24.386Z,96452.66
2023-04-01T22:56:33.468Z,96460.72
2023-04-01T23:00:41.769Z,96463.41
2023-04-01T23:04:50.974Z,96471.91
2023-04-01T23:09:13.182Z,96472.97
2023-04-01T23:13:21.650Z,96489.94
2023-04-01T23:17:38.407Z,96489.53
2023-04-01T23:21:46.743Z,96498.47
2023-04-01T23:25:59.709Z,96498.22
2023-04-01T23:30:02.713Z,96511.25
2023-04-01T23:34:22.229Z,96510.84
2023-04-01T23:38:28.111Z,96517.91
2023-04-01T23:42:32.826Z,96511.31
2023-04-01T23:46:37.302Z,96520.19
2023-04-01T23:50:40.874Z,96510.91
2023-04-01T23:54:50.351Z,96504.94
2023-04-01T23:58:57.793Z,96514.03
